• Join FlightAware (Why Join?)
  • Login
  • US Flag 
08:51AM EDT


 

Airport Tracker/Info


-or-


 

Live Flight TrackerFlight Track Log ✈ VH-OEJ ✈ 20-Apr-2013 ✈ YBBN / BNE - KLAX

Flight Track Log - Related Links

Times and Time Zones

All times are in EDT time to prevent confusion due to time zone crossing. See the VH-OEJ flight status page for this flight to view local times or setup timezone preferences in your user account.

Time Position Orientation Groundspeed Altitude Reporting Facility
EDT Latitude Longitude Course Direction KTS MPH feet Rate Location/Type
08:39PM -27.4060 153.1090 North 3 3  Level FlightAware
08:43PM -27.4070 153.1100 138° Southeast 10 12 60 Level FlightAware
08:43PM -27.4060 153.1100 360° North 12 14 60 Level FlightAware
08:43PM -27.4050 153.1110 42° Northeast 9 10 60 Level FlightAware
08:44PM -27.4050 153.1130 90° East 10 12 60 Level FlightAware
08:45PM -27.4030 153.1150 42° Northeast 17 20 60 Level FlightAware
08:45PM -27.4000 153.1160 16° North 17 20 60 Level FlightAware
08:46PM -27.3970 153.1180 31° Northeast 16 18 60 Level FlightAware
08:46PM -27.3950 153.1190 24° Northeast 18 21 120 Level FlightAware
08:47PM -27.3940 153.1200 42° Northeast 17 20 120 Level FlightAware
08:47PM -27.3910 153.1210 16° North 21 24 120 Level FlightAware
08:48PM -27.3890 153.1230 42° Northeast 22 25 120 Level FlightAware
08:48PM -27.3870 153.1240 24° Northeast 16 18 120 Level FlightAware
08:49PM -27.3820 153.1270 28° Northeast 23 26 120 Level FlightAware
08:50PM -27.3790 153.1280 16° North 23 26 180 Level FlightAware
08:50PM -27.3770 153.1290 24° Northeast 17 20 240 Level FlightAware
08:51PM -27.3750 153.1300 24° Northeast 14 16 240 Level FlightAware
08:51PM -27.3740 153.1310 42° Northeast 15 17 300 Level FlightAware
08:52PM -27.3730 153.1330 61° Northeast 14 16 300 Level FlightAware
08:52PM -27.3750 153.1340 156° South 29 33 480 Level FlightAware
08:53PM -27.3930 153.1240 206° Southwest 175 201 780 Level FlightAware
08:53PM -27.4130 153.1130 206° Southwest 183 211 900 1,920 Climbing FlightAware
08:54PM -27.4330 153.1020 206° Southwest 196 226 1,600 1,800 Climbing FlightAware
08:54PM -27.4512 153.0928 206° Southwest 194 223 2,200 1,380 Climbing Aus ATC (RADAR)
08:54PM -27.4580 153.0900 206° Southwest 199 229 2,300 1,080 Climbing FlightAware
08:55PM -27.4710 153.0840 202° Southwest 202 232 2,700 1,320 Climbing FlightAware
08:55PM -27.4920 153.0720 207° Southwest 205 236 3,200 1,200 Climbing FlightAware
08:55PM -27.5010 153.0590 232° Southwest 205 236 3,500 780 Climbing FlightAware
08:55PM -27.5030 153.0440 261° West 215 247 3,600 600 Climbing FlightAware
08:56PM -27.4990 153.0270 285° West 225 259 3,800 720 Climbing FlightAware
08:56PM -27.4930 153.0180 307° West 236 272 3,900 720 Climbing FlightAware
08:56PM -27.4780 153.0080 329° Northwest 252 290 4,100 600 Climbing FlightAware
08:56PM -27.4590 153.0060 355° North 269 310 4,200 1,440 Climbing FlightAware
08:57PM -27.4210 153.0090 North 273 314 5,200 1,800 Climbing FlightAware
08:57PM -27.3880 153.0120 North 285 328 5,900 1,500 Climbing FlightAware
08:58PM -27.3452 153.0175 North 297 342 6,500 1,200 Climbing Aus ATC (RADAR)
08:58PM -27.3480 153.0170 North 314 361 6,500 660 Level FlightAware
08:58PM -27.3260 153.0270 22° Northeast 335 386 6,700 1,080 Climbing FlightAware
08:58PM -27.2945 153.0427 22° Northeast 341 392 7,100 1,440 Climbing Aus ATC (RADAR)
08:58PM -27.2900 153.0450 22° Northeast 357 411 7,300 1,260 Climbing FlightAware
08:59PM -27.2500 153.0820 39° Northeast 390 449 7,900 1,020 Climbing FlightAware
08:59PM -27.2370 153.1090 62° Northeast 406 467 8,100 1,620 Climbing FlightAware
09:00PM -27.2260 153.1620 77° East 414 476 9,000 2,100 Climbing FlightAware
09:00PM -27.2200 153.2460 85° East 424 488 10,400 2,220 Climbing FlightAware
09:01PM -27.2159 153.3179 85° East 425 489 11,500 2,220 Climbing Aus ATC (RADAR)
09:01PM -27.2140 153.3460 85° East 431 496 12,100 2,220 Climbing FlightAware
09:01PM -27.2088 153.3963 85° East 430 495 12,800 2,220 Climbing Aus ATC (RADAR)
09:02PM -27.2050 153.4390 85° East 440 506 13,600 1,980 Climbing FlightAware
09:02PM -27.1874 153.5315 85° East 442 509 14,800 1,800 Climbing Aus ATC (RADAR)
09:02PM -27.1880 153.5270 85° East 453 521 14,800 1,920 Level FlightAware
09:03PM -27.1462 153.6154 85° East 458 527 16,100 1,980 Climbing Aus ATC (RADAR)
09:03PM -27.1420 153.6230 85° East 463 533 16,300 1,620 Climbing FlightAware
09:04PM -27.0950 153.7060 58° Northeast 477 549 17,400 1,740 Climbing FlightAware
09:05PM -27.0420 153.7990 57° Northeast 486 559 18,800 1,680 Climbing FlightAware
09:05PM -26.9910 153.8870 57° Northeast 501 577 19,800 1,740 Climbing FlightAware
09:06PM -26.9470 153.9640 57° Northeast 503 579 21,000 1,980 Climbing FlightAware
09:06PM -26.9147 154.0204 57° Northeast 502 578 21,700 1,680 Climbing Aus ATC (RADAR)
09:07PM -26.8910 154.0610 57° Northeast 510 587 22,300 1,500 Climbing FlightAware
09:07PM -26.8390 154.1530 58° Northeast 518 596 23,300 1,500 Climbing FlightAware
09:08PM -26.8054 154.2115 58° Northeast 517 595 23,900 1,500 Climbing Aus ATC (RADAR)
09:08PM -26.7870 154.2440 58° Northeast 525 604 24,300 1,320 Climbing FlightAware
09:08PM -26.7591 154.2914 58° Northeast 523 602 24,700 1,380 Climbing Aus ATC (RADAR)
09:08PM -26.7470 154.3130 58° Northeast 530 610 25,000 1,080 Climbing FlightAware
09:09PM -26.6940 154.4040 57° Northeast 541 623 25,700 1,020 Climbing FlightAware
09:10PM -26.6303 154.5144 57° Northeast 545 627 26,400 1,020 Climbing Aus ATC (RADAR)
09:10PM -26.6330 154.5110 57° Northeast 551 634 26,500 1,620 Climbing FlightAware
09:10PM -26.5800 154.6020 57° Northeast 549 632 27,600 1,800 Climbing FlightAware
09:11PM -26.5338 154.6808 57° Northeast 541 623 28,500 1,800 Climbing Aus ATC (RADAR)
09:11PM -26.5210 154.7010 57° Northeast 544 626 28,800 1,560 Climbing FlightAware
09:11PM -26.5134 154.7163 57° Northeast 541 623 28,900 1,320 Climbing Aus ATC (RADAR)
09:12PM -26.4655 154.7988 57° Northeast 539 620 29,600 1,200 Climbing Aus ATC (RADAR)
09:12PM -26.4670 154.7950 57° Northeast 543 625 29,700 1,200 Climbing FlightAware
09:13PM -26.4010 154.9080 57° Northeast 542 624 30,600 900 Climbing FlightAware
09:13PM -26.3460 155.0020 57° Northeast 542 624 31,000 300 Climbing FlightAware
09:14PM -26.2950 155.0920 58° Northeast 543 625 31,000 -120 Level FlightAware
09:14PM -26.2598 155.1497 58° Northeast 537 618 30,900  Descending Aus ATC (RADAR)
09:15PM -26.2270 155.2060 58° Northeast 544 626 31,000 60 Climbing FlightAware
09:15PM -26.1760 155.2910 56° Northeast 544 626 31,000  Level FlightAware
09:16PM -26.1280 155.3710 56° Northeast 544 626 31,000  Level FlightAware
09:17PM -26.0800 155.4500 56° Northeast 544 626 31,000 -180 Level FlightAware
09:17PM -26.0531 155.5017 56° Northeast 539 620 30,900 -420 Descending Aus ATC (RADAR)
09:17PM -26.0325 155.5371 56° Northeast 540 621 30,900 120 Level Aus ATC (RADAR)
09:18PM -26.0200 155.5480 56° Northeast 544 626 31,000 60 Climbing FlightAware
09:18PM -25.9720 155.6270 56° Northeast 544 626 31,000 -120 Level FlightAware
09:19PM -25.9006 155.7595 56° Northeast 538 619 30,900  Descending Aus ATC (RADAR)
09:19PM -25.9250 155.7060 56° Northeast 544 626 31,000  Climbing FlightAware
09:19PM -25.8517 155.8409 56° Northeast 538 619 30,900  Descending Aus ATC (RADAR)
09:20PM -25.8770 155.7850 56° Northeast 544 626 31,000 60 Climbing FlightAware
09:20PM -25.8290 155.8640 56° Northeast 544 626 31,000 -120 Level FlightAware
09:20PM -25.7397 156.0275 56° Northeast 539 620 30,900 -240 Descending Aus ATC (RADAR)
09:21PM -25.7188 156.0625 56° Northeast 540 621 30,900 240 Level Aus ATC (RADAR)
09:21PM -25.7810 155.9430 56° Northeast 544 626 31,000  Climbing FlightAware
09:22PM -25.6513 156.2149 56° Northeast 537 618 30,900  Descending Aus ATC (RADAR)
09:22PM -25.7210 156.0410 56° Northeast 544 626 31,000  Climbing FlightAware
09:22PM -25.6121 156.3032 56° Northeast 538 619 30,900  Descending Aus ATC (RADAR)
09:22PM -25.6730 156.1200 56° Northeast 544 626 31,000 120 Climbing FlightAware
09:23PM -25.6250 156.1980 56° Northeast 544 626 31,000  Level FlightAware
09:23PM -25.5516 156.4585 56° Northeast 535 616 31,000  Level Aus ATC (RADAR)
09:24PM -25.5780 156.2770 56° Northeast 544 626 31,000  Level FlightAware
09:25PM -25.5180 156.3750 56° Northeast 544 626 31,000  Level FlightAware
09:25PM -25.4741 156.7124 56° Northeast 539 620 31,000  Level Aus ATC (RADAR)
09:26PM -25.4276 156.8580 71° East 537 618 31,000  Level Aus ATC (RADAR)
09:27PM -25.3806 157.0034 70° East 536 617 31,000  Level Aus ATC (RADAR)
09:27PM -25.3484 157.0940 69° East 533 613 31,000  Level Aus ATC (RADAR)
09:28PM -25.3193 157.1851 71° East 532 612 31,000  Level Aus ATC (RADAR)
09:31PM -25.1085 157.6439 55° Northeast 31,000  Level Aus ATC (Calculated)
09:33PM -25.0089 157.8589 63° Northeast  Level FlightAware Approximate
09:34PM -24.9446 157.9974 63° Northeast  Level FlightAware Approximate
09:35PM -24.8801 158.1358 63° Northeast  Level FlightAware Approximate
09:35PM -24.8584 158.1824 54° Northeast 31,000  Level Aus ATC (Calculated)
09:37PM -24.7311 158.4540 63° Northeast  Level FlightAware Approximate
09:38PM -24.6661 158.5918 63° Northeast  Level FlightAware Approximate
09:38PM -24.6314 158.6656 54° Northeast 31,000  Level Aus ATC (Calculated)
09:39PM -24.5815 158.7711 54° Northeast 31,000  Level Aus ATC (Calculated)
09:40PM -24.5293 158.8812 63° Northeast  Level FlightAware Approximate
09:41PM -24.4608 159.0254 62° Northeast  Level FlightAware Approximate
09:42PM -24.3953 159.1627 62° Northeast  Level FlightAware Approximate
09:43PM -24.3298 159.2998 62° Northeast  Level FlightAware Approximate
09:44PM -24.2641 159.4368 62° Northeast  Level FlightAware Approximate
09:44PM -24.2170 159.5349 53° Northeast 31,000  Level Aus ATC (Calculated)
09:46PM -24.0917 159.7946 62° Northeast  Level FlightAware Approximate
09:47PM -24.0256 159.9311 62° Northeast  Level FlightAware Approximate
09:48PM -23.9593 160.0675 62° Northeast  Level FlightAware Approximate
09:49PM -23.8929 160.2037 62° Northeast  Level FlightAware Approximate
09:49PM -23.8409 160.3101 53° Northeast 31,000  Level Aus ATC (Calculated)
09:51PM -23.7099 160.5774 62° Northeast  Level FlightAware Approximate
09:52PM -23.6430 160.7131 62° Northeast  Level FlightAware Approximate
09:53PM -23.5761 160.8486 62° Northeast  Level FlightAware Approximate
09:53PM -23.4703 161.0620 52° Northeast 31,000  Level Aus ATC (Calculated)
09:54PM -23.5090 160.9840 62° Northeast  Level FlightAware Approximate
09:55PM -23.4009 161.2017 62° Northeast  Level FlightAware Approximate
09:55PM -23.3533 161.2971 52° Northeast 31,000  Level Aus ATC (Calculated)
09:57PM -23.2419 161.5197 61° Northeast  Level FlightAware Approximate
09:58PM -23.1743 161.6544 61° Northeast  Level FlightAware Approximate
09:58PM -23.0886 161.8246 52° Northeast 31,000  Level Aus ATC (Calculated)
09:59PM -23.0000 162.0000 52° Northeast 31,000  Level Aus ATC (Calculated)
10:00PM -23.0139 161.9725 61° Northeast  Level FlightAware Approximate
10:01PM -23.1576 162.0000 180° South  Level FlightAware Approximate
10:02PM -23.0165 162.0000 North  Level FlightAware Approximate
10:03PM -22.8754 162.0000 North  Level FlightAware Approximate
10:03PM -22.7456 162.4385 51° Northeast 31,000  Level Aus ATC (Calculated)
10:04PM -22.8209 162.3091 238° Southwest  Level FlightAware Approximate
10:04PM -22.7046 162.5088 51° Northeast 31,000  Level Aus ATC (Calculated)
10:05PM -22.7800 162.3795 238° Southwest  Level FlightAware Approximate
10:05PM -22.5248 162.8160 51° Northeast 31,000  Level Aus ATC (Calculated)
10:06PM -22.8552 162.2500 238° Southwest  Level FlightAware Approximate
10:06PM -22.4708 162.9080 51° Northeast 31,000  Level Aus ATC (Calculated)
10:07PM -22.6093 162.6720 238° Southwest  Level FlightAware Approximate
10:08PM -22.3467 163.0966 58° Northeast  Level Estimated
10:08PM -22.2497 163.2811 51° Northeast 31,000  Level Aus ATC (Calculated)
10:09PM -22.4337 162.9765 232° Southwest  Level FlightAware Approximate
10:10PM -22.3336 163.1400 237° Southwest  Level FlightAware Approximate
10:11PM -22.4098 163.0116 237° Southwest  Level FlightAware Approximate
10:12PM -22.4859 162.8830 237° Southwest  Level FlightAware Approximate
10:13PM -22.4098 163.0116 57° Northeast  Level FlightAware Approximate
10:14PM -22.4859 162.8830 237° Southwest  Level FlightAware Approximate
10:15PM -22.4041 163.0074 57° Northeast  Level Estimated
10:16PM -22.3280 163.1359 57° Northeast  Level FlightAware Approximate
10:17PM -22.2518 163.2642 57° Northeast  Level FlightAware Approximate
10:18PM -22.1755 163.3924 57° Northeast  Level FlightAware Approximate
10:19PM -22.0991 163.5205 57° Northeast  Level FlightAware Approximate
10:20PM -22.0226 163.6484 57° Northeast  Level FlightAware Approximate
10:21PM -21.9460 163.7762 57° Northeast  Level FlightAware Approximate
10:22PM -21.8693 163.9038 57° Northeast  Level FlightAware Approximate
10:23PM -21.7925 164.0313 57° Northeast  Level FlightAware Approximate
10:24PM -21.7156 164.1587 57° Northeast  Level FlightAware Approximate
10:25PM -21.6386 164.2859 57° Northeast  Level FlightAware Approximate
10:26PM -21.5615 164.4130 57° Northeast  Level FlightAware Approximate
10:27PM -21.4844 164.5399 57° Northeast  Level FlightAware Approximate
10:28PM -21.4071 164.6668 57° Northeast  Level FlightAware Approximate
10:29PM -21.3297 164.7935 57° Northeast  Level FlightAware Approximate
10:30PM -21.2522 164.9200 57° Northeast  Level FlightAware Approximate
10:31PM -21.1747 165.0464 57° Northeast  Level FlightAware Approximate
10:32PM -21.0970 165.1727 57° Northeast  Level FlightAware Approximate
10:33PM -21.0192 165.2989 57° Northeast  Level FlightAware Approximate
10:34PM -20.9414 165.4249 57° Northeast  Level FlightAware Approximate
10:35PM -20.8634 165.5508 56° Northeast  Level FlightAware Approximate
10:36PM -20.7854 165.6765 56° Northeast  Level FlightAware Approximate
10:37PM -20.7073 165.8022 56° Northeast  Level FlightAware Approximate
10:38PM -20.6291 165.9277 56° Northeast  Level FlightAware Approximate
10:39PM -20.5508 166.0531 56° Northeast  Level FlightAware Approximate
10:40PM -20.4724 166.1783 56° Northeast  Level FlightAware Approximate
10:41PM -20.3939 166.3034 56° Northeast  Level FlightAware Approximate
10:42PM -20.3153 166.4284 56° Northeast  Level FlightAware Approximate
10:43PM -20.2367 166.5533 56° Northeast  Level FlightAware Approximate
10:44PM -20.1579 166.6780 56° Northeast  Level FlightAware Approximate
10:45PM -20.0791 166.8026 56° Northeast  Level FlightAware Approximate
10:46PM -20.0002 166.9271 56° Northeast  Level FlightAware Approximate
10:47PM -19.9211 167.0515 56° Northeast  Level FlightAware Approximate
10:48PM -19.8420 167.1757 56° Northeast  Level FlightAware Approximate
10:49PM -19.7628 167.2998 56° Northeast  Level FlightAware Approximate
10:50PM -19.6836 167.4238 56° Northeast  Level FlightAware Approximate
10:51PM -19.6042 167.5477 56° Northeast  Level FlightAware Approximate
10:52PM -19.5248 167.6714 56° Northeast  Level FlightAware Approximate
10:53PM -19.4453 167.7950 56° Northeast  Level FlightAware Approximate
10:54PM -19.3657 167.9185 56° Northeast  Level FlightAware Approximate
10:55PM -19.2860 168.0419 56° Northeast  Level FlightAware Approximate
10:56PM -19.2062 168.1652 56° Northeast  Level FlightAware Approximate
10:57PM -19.1263 168.2883 56° Northeast  Level FlightAware Approximate
10:58PM -19.0464 168.4113 56° Northeast  Level FlightAware Approximate
10:59PM -18.9664 168.5343 55° Northeast  Level FlightAware Approximate
11:00PM -18.8863 168.6570 55° Northeast  Level FlightAware Approximate
11:01PM -18.8061 168.7797 55° Northeast  Level FlightAware Approximate
11:02PM -18.7258 168.9023 55° Northeast  Level FlightAware Approximate
11:03PM -18.6455 169.0247 55° Northeast  Level FlightAware Approximate
11:04PM -18.5651 169.1470 55° Northeast  Level FlightAware Approximate
11:05PM -18.4846 169.2692 55° Northeast  Level FlightAware Approximate
11:06PM -18.4040 169.3913 55° Northeast  Level FlightAware Approximate
11:07PM -18.3233 169.5133 55° Northeast  Level FlightAware Approximate
11:08PM -18.2426 169.6352 55° Northeast  Level FlightAware Approximate
11:09PM -18.1618 169.7569 55° Northeast  Level FlightAware Approximate
11:10PM -18.0809 169.8786 55° Northeast  Level FlightAware Approximate
11:11PM -17.9944 169.9957 45° Northeast  Level Estimated
11:12PM -17.8946 170.1006 45° Northeast  Level FlightAware Approximate
11:13PM -17.7949 170.2054 45° Northeast  Level FlightAware Approximate
11:14PM -17.6950 170.3101 45° Northeast  Level FlightAware Approximate
11:15PM -17.5952 170.4147 45° Northeast  Level FlightAware Approximate
11:16PM -17.4952 170.5192 45° Northeast  Level FlightAware Approximate
11:17PM -17.3952 170.6235 45° Northeast  Level FlightAware Approximate
11:18PM -17.2952 170.7277 45° Northeast  Level FlightAware Approximate
11:19PM -17.1951 170.8318 45° Northeast  Level FlightAware Approximate
11:20PM -17.0949 170.9359 45° Northeast  Level FlightAware Approximate
11:21PM -16.9947 171.0397 45° Northeast  Level FlightAware Approximate
11:22PM -16.8945 171.1435 45° Northeast  Level FlightAware Approximate
11:23PM -16.7942 171.2472 45° Northeast  Level FlightAware Approximate
11:24PM -16.6938 171.3508 45° Northeast  Level FlightAware Approximate
11:25PM -16.5934 171.4542 45° Northeast  Level FlightAware Approximate
11:26PM -16.4930 171.5575 45° Northeast  Level FlightAware Approximate
11:27PM -16.3924 171.6608 45° Northeast  Level FlightAware Approximate
11:28PM -16.2919 171.7639 45° Northeast  Level FlightAware Approximate
11:29PM -16.1913 171.8669 45° Northeast  Level FlightAware Approximate
11:30PM -16.0906 171.9698 44° Northeast  Level FlightAware Approximate
11:31PM -15.9899 172.0726 44° Northeast  Level FlightAware Approximate
11:32PM -15.8891 172.1754 44° Northeast  Level FlightAware Approximate
11:33PM -15.7883 172.2780 44° Northeast  Level FlightAware Approximate
11:34PM -15.6875 172.3805 44° Northeast  Level FlightAware Approximate
11:35PM -15.5866 172.4829 44° Northeast  Level FlightAware Approximate
11:36PM -15.4856 172.5852 44° Northeast  Level FlightAware Approximate
11:37PM -15.3846 172.6874 44° Northeast  Level FlightAware Approximate
11:38PM -15.2836 172.7895 44° Northeast  Level FlightAware Approximate
11:39PM -15.1825 172.8915 44° Northeast  Level FlightAware Approximate
11:40PM -15.0813 172.9934 44° Northeast  Level FlightAware Approximate
11:41PM -14.9802 173.0952 44° Northeast  Level FlightAware Approximate
11:42PM -14.8789 173.1969 44° Northeast  Level FlightAware Approximate
11:43PM -14.7776 173.2985 44° Northeast  Level FlightAware Approximate
11:44PM -14.6763 173.4001 44° Northeast  Level FlightAware Approximate
11:45PM -14.5750 173.5015 44° Northeast  Level FlightAware Approximate
11:46PM -14.4736 173.6028 44° Northeast  Level FlightAware Approximate
11:47PM -14.3721 173.7041 44° Northeast  Level FlightAware Approximate
11:48PM -14.2706 173.8052 44° Northeast  Level FlightAware Approximate
11:49PM -14.1691 173.9063 44° Northeast  Level FlightAware Approximate
11:50PM -14.0675 174.0072 44° Northeast  Level FlightAware Approximate
11:51PM -13.9670 174.1070 44° Northeast  Level FlightAware Approximate
11:52PM -13.8664 174.2067 44° Northeast  Level FlightAware Approximate
11:53PM -13.7658 174.3064 44° Northeast  Level FlightAware Approximate
11:54PM -13.6652 174.4059 44° Northeast  Level FlightAware Approximate
11:55PM -13.5645 174.5053 44° Northeast  Level FlightAware Approximate
11:56PM -13.4638 174.6047 44° Northeast  Level FlightAware Approximate
11:57PM -13.3630 174.7040 44° Northeast  Level FlightAware Approximate
11:58PM -13.2622 174.8032 44° Northeast  Level FlightAware Approximate
11:59PM -13.1614 174.9023 44° Northeast  Level FlightAware Approximate
12:00AM -13.0605 175.0013 44° Northeast  Level FlightAware Approximate
12:01AM -12.9596 175.1003 44° Northeast  Level FlightAware Approximate
12:02AM -12.8586 175.1992 44° Northeast  Level FlightAware Approximate
12:03AM -12.7576 175.2979 44° Northeast  Level FlightAware Approximate
12:04AM -12.6566 175.3967 44° Northeast  Level FlightAware Approximate
12:05AM -12.5555 175.4953 44° Northeast  Level FlightAware Approximate
12:06AM -12.4544 175.5939 44° Northeast  Level FlightAware Approximate
12:07AM -12.3533 175.6924 44° Northeast  Level FlightAware Approximate
12:08AM -12.2521 175.7908 44° Northeast  Level FlightAware Approximate
12:09AM -12.1510 175.8891 44° Northeast  Level FlightAware Approximate
12:10AM -12.0497 175.9874 44° Northeast  Level FlightAware Approximate
12:11AM -11.9484 176.0855 43° Northeast  Level FlightAware Approximate
12:12AM -11.8471 176.1836 43° Northeast  Level FlightAware Approximate
12:13AM -11.7458 176.2817 43° Northeast  Level FlightAware Approximate
12:14AM -11.6444 176.3796 43° Northeast  Level FlightAware Approximate
12:15AM -11.5430 176.4775 43° Northeast  Level FlightAware Approximate
12:16AM -11.4416 176.5753 43° Northeast  Level FlightAware Approximate
12:17AM -11.3401 176.6731 43° Northeast  Level FlightAware Approximate
12:18AM -11.2386 176.7708 43° Northeast  Level FlightAware Approximate
12:19AM -11.1370 176.8684 43° Northeast  Level FlightAware Approximate
12:20AM -11.0484 176.9783 45° Northeast  Level Estimated
12:21AM -10.9500 177.0790 45° Northeast  Level FlightAware Approximate
12:22AM -10.8514 177.1797 45° Northeast  Level FlightAware Approximate
12:23AM -10.7529 177.2803 45° Northeast  Level FlightAware Approximate
12:24AM -10.6543 177.3809 45° Northeast  Level FlightAware Approximate
12:25AM -10.5557 177.4814 45° Northeast  Level FlightAware Approximate
12:26AM -10.4571 177.5818 45° Northeast  Level FlightAware Approximate
12:27AM -10.3584 177.6821 45° Northeast  Level FlightAware Approximate
12:28AM -10.2597 177.7825 45° Northeast  Level FlightAware Approximate
12:29AM -10.1610 177.8827 45° Northeast  Level FlightAware Approximate
12:30AM -10.0622 177.9829 45° Northeast  Level FlightAware Approximate
12:31AM -9.9634 178.0830 45° Northeast  Level FlightAware Approximate
12:32AM -9.8646 178.1830 45° Northeast  Level FlightAware Approximate
12:33AM -9.7658 178.2830 45° Northeast  Level FlightAware Approximate
12:34AM -9.6669 178.3829 45° Northeast  Level FlightAware Approximate
12:35AM -9.5680 178.4828 45° Northeast  Level FlightAware Approximate
12:36AM -9.4690 178.5826 45° Northeast  Level FlightAware Approximate
12:37AM -9.3701 178.6824 45° Northeast  Level FlightAware Approximate
12:38AM -9.2711 178.7821 45° Northeast  Level FlightAware Approximate
12:39AM -9.1720 178.8817 45° Northeast  Level FlightAware Approximate
12:40AM -9.0730 178.9813 45° Northeast  Level FlightAware Approximate
12:41AM -8.9739 179.0809 45° Northeast  Level FlightAware Approximate
12:42AM -8.8748 179.1803 45° Northeast  Level FlightAware Approximate
12:43AM -8.7757 179.2798 45° Northeast  Level FlightAware Approximate
12:44AM -8.6765 179.3791 45° Northeast  Level FlightAware Approximate
12:45AM -8.5773 179.4785 45° Northeast  Level FlightAware Approximate
12:46AM -8.4781 179.5777 45° Northeast  Level FlightAware Approximate
12:47AM -8.3789 179.6769 45° Northeast  Level FlightAware Approximate
12:48AM -8.2796 179.7761 45° Northeast  Level FlightAware Approximate
12:49AM -8.1804 179.8752 45° Northeast  Level FlightAware Approximate
12:50AM -8.0810 179.9743 45° Northeast  Level FlightAware Approximate
12:51AM -7.9817 -179.9267 45° Northeast  Level FlightAware Approximate
12:52AM -7.8824 -179.8277 45° Northeast  Level FlightAware Approximate
12:53AM -7.7837 -179.7294 45° Northeast  Level FlightAware Approximate
12:54AM -7.6849 -179.6312 45° Northeast  Level FlightAware Approximate
12:55AM -7.5862 -179.5331 45° Northeast  Level FlightAware Approximate
12:56AM -7.4874 -179.4350 45° Northeast  Level FlightAware Approximate
12:57AM -7.3886 -179.3369 45° Northeast  Level FlightAware Approximate
12:58AM -7.2898 -179.2388 45° Northeast  Level FlightAware Approximate
12:59AM -7.1909 -179.1408 45° Northeast  Level FlightAware Approximate
01:00AM -7.0921 -179.0429 45° Northeast  Level FlightAware Approximate
01:01AM -6.9932 -178.9450 45° Northeast  Level FlightAware Approximate
01:02AM -6.8943 -178.8471 44° Northeast  Level FlightAware Approximate
01:03AM -6.7954 -178.7493 44° Northeast  Level FlightAware Approximate
01:04AM -6.6964 -178.6515 44° Northeast  Level FlightAware Approximate
01:05AM -6.5975 -178.5538 44° Northeast  Level FlightAware Approximate
01:06AM -6.4985 -178.4560 44° Northeast  Level FlightAware Approximate
01:07AM -6.3995 -178.3584 44° Northeast  Level FlightAware Approximate
01:08AM -6.3005 -178.2607 44° Northeast  Level FlightAware Approximate
01:09AM -6.2014 -178.1631 44° Northeast  Level FlightAware Approximate
01:10AM -6.1024 -178.0656 44° Northeast  Level FlightAware Approximate
01:11AM -6.0033 -177.9681 44° Northeast  Level FlightAware Approximate
01:12AM -5.9042 -177.8706 44° Northeast  Level FlightAware Approximate
01:13AM -5.8051 -177.7731 44° Northeast  Level FlightAware Approximate
01:14AM -5.7060 -177.6757 44° Northeast  Level FlightAware Approximate
01:15AM -5.6069 -177.5784 44° Northeast  Level FlightAware Approximate
01:16AM -5.5077 -177.4810 44° Northeast  Level FlightAware Approximate
01:17AM -5.4085 -177.3837 44° Northeast  Level FlightAware Approximate
01:17AM -5.0000 -176.9833 44° Northeast 500 575 33,000  Level Oakland Oceanic (ODAPS)
01:18AM -5.3093 -177.2864 44° Northeast  Level FlightAware Approximate
01:19AM -5.2101 -177.1891 44° Northeast  Level FlightAware Approximate
01:20AM -5.1109 -177.0919 44° Northeast  Level FlightAware Approximate
01:21AM -5.0218 -176.9853 44° Northeast  Level Estimated
01:22AM -4.9219 -176.8888 44° Northeast  Level FlightAware Approximate
01:23AM -4.4002 -176.3930 44° Northeast 500 575 33,000  Level FlightAware Transoceanic
01:24AM -4.3001 -176.2947 44° Northeast 500 575 33,000  Level FlightAware Transoceanic
01:24AM -4.2333 -176.2167 43° Northeast 501 577 33,000  Level Oakland Oceanic (ODAPS)
01:25AM -4.2001 -176.1965 44° Northeast 500 575 33,000  Level FlightAware Transoceanic
01:26AM -4.1001 -176.0982 44° Northeast 500 575 33,000  Level FlightAware Transoceanic
01:27AM -4.0000 -176.0000 45° Northeast 500 575 33,000  Level FlightAware Transoceanic
01:27AM -4.0000 -176.0000 45° Northeast 501 577 33,000  Level Oakland Oceanic (ODAPS)
01:28AM -3.9034 -175.9029 45° Northeast 500 575 33,000  Level FlightAware Transoceanic
01:29AM -3.8068 -175.8058 45° Northeast 500 575 33,000  Level FlightAware Transoceanic
01:30AM -3.7102 -175.7087 45° Northeast 500 575 33,000  Level FlightAware Transoceanic
01:31AM -3.6135 -175.6117 45° Northeast 501 577 33,000  Level FlightAware Transoceanic
01:32AM -3.5169 -175.5146 45° Northeast 501 577 33,000  Level FlightAware Transoceanic
01:33AM -3.4107 -175.4081 45° Northeast 501 577 33,000  Level FlightAware Transoceanic
01:34AM -3.3125 -175.3095 45° Northeast 501 577 33,000  Level FlightAware Transoceanic
01:35AM -3.2142 -175.2109 45° Northeast 501 577 33,000  Level FlightAware Transoceanic
01:36AM -3.1159 -175.1124 45° Northeast 501 577 33,000  Level FlightAware Transoceanic
01:37AM -3.0176 -175.0139 45° Northeast 501 577 33,000  Level FlightAware Transoceanic
01:38AM -2.9194 -174.9154 45° Northeast 501 577 33,000  Level FlightAware Transoceanic
01:38AM -2.8667 -174.8500 45° Northeast 498 573 33,000  Level Oakland Oceanic (ODAPS)
01:39AM -2.8211 -174.8169 45° Northeast 501 577 33,000  Level FlightAware Transoceanic
01:40AM -2.7228 -174.7184 45° Northeast 501 577 33,000  Level FlightAware Transoceanic
01:41AM -2.6244 -174.6200 45° Northeast 501 577 33,000  Level FlightAware Transoceanic
01:42AM -2.5261 -174.5215 45° Northeast 501 577 33,000  Level FlightAware Transoceanic
01:43AM -2.4278 -174.4231 45° Northeast 501 577 33,000  Level FlightAware Transoceanic
01:44AM -2.3295 -174.3247 45° Northeast 501 577 33,000  Level FlightAware Transoceanic
01:45AM -2.2712 -174.2553 45° Northeast 498 573 33,000  Level FlightAware Transoceanic
01:46AM -2.1719 -174.1562 45° Northeast 498 573 33,000  Level FlightAware Transoceanic
01:47AM -2.0726 -174.0572 45° Northeast 498 573 33,000  Level FlightAware Transoceanic
01:48AM -1.9733 -173.9582 45° Northeast 498 573 33,000  Level FlightAware Transoceanic
01:49AM -1.8740 -173.8591 45° Northeast 498 573 33,000  Level FlightAware Transoceanic
01:50AM -1.7747 -173.7601 45° Northeast 498 573 33,000  Level FlightAware Transoceanic
01:51AM -1.6754 -173.6611 45° Northeast 498 573 33,000  Level FlightAware Transoceanic
01:52AM -1.5761 -173.5621 45° Northeast 498 573 33,000  Level FlightAware Transoceanic
01:52AM -1.5000 -173.4833 45° Northeast 497 572 33,000  Level Oakland Oceanic (ODAPS)
01:53AM -1.4768 -173.4631 45° Northeast 498 573 33,000  Level FlightAware Transoceanic
01:54AM -1.3774 -173.3642 45° Northeast 498 573 33,000  Level FlightAware Transoceanic
01:55AM -1.2781 -173.2652 45° Northeast 498 573 33,000  Level FlightAware Transoceanic
01:56AM -1.1788 -173.1662 45° Northeast 498 573 33,000  Level FlightAware Transoceanic
01:57AM -1.0795 -173.0673 45° Northeast 498 573 33,000  Level FlightAware Transoceanic
01:58AM -0.9801 -172.9683 45° Northeast 498 573 33,000  Level FlightAware Transoceanic
01:59AM -0.8195 -172.8060 45° Northeast 497 572 33,000  Level FlightAware Transoceanic
02:00AM -0.7222 -172.7092 45° Northeast 497 572 33,000  Level FlightAware Transoceanic
02:01AM -0.6250 -172.6125 45° Northeast 497 572 33,000  Level FlightAware Transoceanic
02:02AM -0.5278 -172.5157 45° Northeast 497 572 33,000  Level FlightAware Transoceanic
02:03AM -0.4306 -172.4190 45° Northeast 497 572 33,000  Level FlightAware Transoceanic
02:04AM -0.3333 -172.3223 45° Northeast 497 572 33,000  Level FlightAware Transoceanic
02:05AM -0.2361 -172.2255 45° Northeast 497 572 33,000  Level FlightAware Transoceanic
02:06AM -0.1388 -172.1288 45° Northeast 497 572 33,000  Level FlightAware Transoceanic
02:06AM -0.1667 -172.1500 45° Northeast 491 565 33,000  Level Oakland Oceanic (ODAPS)
02:07AM -0.0416 -172.0321 45° Northeast 497 572 33,000  Level FlightAware Transoceanic
02:08AM 0.0556 -171.9354 45° Northeast 497 572 33,000  Level FlightAware Transoceanic
02:09AM 0.1529 -171.8386 45° Northeast 497 572 33,000  Level FlightAware Transoceanic
02:10AM 0.2501 -171.7419 45° Northeast 497 572 33,000  Level FlightAware Transoceanic
02:11AM 0.3474 -171.6452 45° Northeast 497 572 33,000  Level FlightAware Transoceanic
02:12AM 0.3986 -171.5893 45° Northeast 491 565 33,000  Level FlightAware Transoceanic
02:13AM 0.4929 -171.4959 45° Northeast 491 565 33,000  Level FlightAware Transoceanic
02:14AM 0.5871 -171.4024 45° Northeast 491 565 33,000  Level FlightAware Transoceanic
02:15AM 0.6813 -171.3090 45° Northeast 491 565 33,000  Level FlightAware Transoceanic
02:16AM 0.7755 -171.2155 45° Northeast 491 565 33,000  Level FlightAware Transoceanic
02:17AM 0.8697 -171.1221 45° Northeast 491 565 33,000  Level FlightAware Transoceanic
02:18AM 0.9639 -171.0286 45° Northeast 491 565 33,000  Level FlightAware Transoceanic
02:19AM 1.0581 -170.9351 45° Northeast 491 565 33,000  Level FlightAware Transoceanic
02:20AM 1.1523 -170.8416 45° Northeast 491 565 33,000  Level FlightAware Transoceanic
02:20AM 1.1833 -170.8000 44° Northeast 500 575 33,000  Level Oakland Oceanic (ODAPS)
02:21AM 1.2465 -170.7482 45° Northeast 491 565 33,000  Level FlightAware Transoceanic
02:22AM 1.3407 -170.6547 45° Northeast 491 565 33,000  Level FlightAware Transoceanic
02:23AM 1.4349 -170.5612 45° Northeast 491 565 33,000  Level FlightAware Transoceanic
02:24AM 1.5291 -170.4677 45° Northeast 491 565 33,000  Level FlightAware Transoceanic
02:25AM 1.6233 -170.3741 45° Northeast 491 565 33,000  Level FlightAware Transoceanic
02:26AM 1.7959 -170.2001 44° Northeast 500 575 33,000  Level FlightAware Transoceanic
02:27AM 1.8979 -170.1000 44° Northeast 500 575 33,000  Level FlightAware Transoceanic
02:28AM 2.0000 -170.0000 45° Northeast 500 575 33,000  Level FlightAware Transoceanic
02:28AM 2.0000 -170.0000 45° Northeast 501 577 33,000  Level Oakland Oceanic (ODAPS)
02:29AM 2.0969 -169.9035 45° Northeast 500 575 33,000  Level FlightAware Transoceanic
02:30AM 2.1938 -169.8070 45° Northeast 500 575 33,000  Level FlightAware Transoceanic
02:31AM 2.2907 -169.7104 45° Northeast 500 575 33,000  Level FlightAware Transoceanic
02:32AM 2.3876 -169.6139 45° Northeast 500 575 33,000  Level FlightAware Transoceanic
02:33AM 2.4845 -169.5173 45° Northeast 500 575 33,000  Level FlightAware Transoceanic
02:34AM 2.5813 -169.4207 45° Northeast 501 577 33,000  Level FlightAware Transoceanic
02:34AM 2.5500 -169.4500 45° Northeast 501 577 33,000  Level Oakland Oceanic (ODAPS)
02:35AM 2.6782 -169.3241 45° Northeast 501 577 33,000  Level FlightAware Transoceanic
02:36AM 2.7750 -169.2275 45° Northeast 501 577 33,000  Level FlightAware Transoceanic
02:37AM 2.8719 -169.1309 45° Northeast 501 577 33,000  Level FlightAware Transoceanic
02:38AM 2.9687 -169.0343 45° Northeast 501 577 33,000  Level FlightAware Transoceanic
02:39AM 3.0656 -168.9376 45° Northeast 501 577 33,000  Level FlightAware Transoceanic
02:40AM 3.1386 -168.8632 45° Northeast 501 577 33,000  Level FlightAware Transoceanic
02:41AM 3.2367 -168.7653 45° Northeast 501 577 33,000  Level FlightAware Transoceanic
02:42AM 3.3347 -168.6674 45° Northeast 501 577 33,000  Level FlightAware Transoceanic
02:43AM 3.4328 -168.5695 45° Northeast 501 577 33,000  Level FlightAware Transoceanic
02:44AM 3.5308 -168.4716 45° Northeast 501 577 33,000  Level FlightAware Transoceanic
02:45AM 3.6288 -168.3737 45° Northeast 501 577 33,000  Level FlightAware Transoceanic
02:46AM 3.7269 -168.2757 45° Northeast 501 577 33,000  Level FlightAware Transoceanic
02:47AM 3.8249 -168.1777 45° Northeast 501 577 33,000  Level FlightAware Transoceanic
02:48AM 3.9229 -168.0797 45° Northeast 501 577 33,000  Level FlightAware Transoceanic
02:48AM 3.9167 -168.0833 45° Northeast 507 583 33,000  Level Oakland Oceanic (ODAPS)
02:49AM 4.0208 -167.9817 45° Northeast 501 577 33,000  Level FlightAware Transoceanic
02:50AM 4.1188 -167.8836 45° Northeast 501 577 33,000  Level FlightAware Transoceanic
02:51AM 4.2168 -167.7856 45° Northeast 501 577 33,000  Level FlightAware Transoceanic
02:52AM 4.3147 -167.6875 45° Northeast 501 577 33,000  Level FlightAware Transoceanic
02:53AM 4.4127 -167.5893 45° Northeast 501 577 33,000  Level FlightAware Transoceanic
02:54AM 4.5078 -167.4928 45° Northeast 507 583 33,000  Level FlightAware Transoceanic
02:55AM 4.6062 -167.3943 45° Northeast 507 583 33,000  Level FlightAware Transoceanic
02:56AM 4.7047 -167.2958 45° Northeast 507 583 33,000  Level FlightAware Transoceanic
02:57AM 4.8032 -167.1972 45° Northeast 507 583 33,000  Level FlightAware Transoceanic
02:58AM 4.9016 -167.0986 45° Northeast 507 583 33,000  Level FlightAware Transoceanic
02:59AM 5.0000 -167.0000 50° Northeast 507 583 33,000 1,920 Level FlightAware Transoceanic
02:59AM 5.0000 -167.0000 50° Northeast 513 590 35,000  Climbing Oakland Oceanic (ODAPS)
03:00AM 5.0932 -166.8900 50° Northeast 507 583 33,000 -1,020 Descending FlightAware Transoceanic
03:01AM 5.1865 -166.7800 50° Northeast 507 583 33,000 1,020 Level FlightAware Transoceanic
03:01AM 5.2667 -166.6833 50° Northeast 514 592 35,000  Climbing Oakland Oceanic (ODAPS)
03:02AM 5.2797 -166.6699 50° Northeast 507 583 33,000 -1,920 Descending FlightAware Transoceanic
03:03AM 5.3729 -166.5598 50° Northeast 507 583 33,000  Level FlightAware Transoceanic
03:04AM 5.4661 -166.4497 50° Northeast 507 583 33,000 960 Level FlightAware Transoceanic
03:05AM 5.5592 -166.3396 50° Northeast 513 590 35,000 960 Climbing FlightAware Transoceanic
03:06AM 5.6523 -166.2294 50° Northeast 513 590 35,000  Level FlightAware Transoceanic
03:07AM 5.7455 -166.1191 50° Northeast 513 590 35,000  Level FlightAware Transoceanic
03:08AM 5.8271 -166.0207 50° Northeast 514 592 35,000  Level FlightAware Transoceanic
03:09AM 5.9204 -165.9102 50° Northeast 514 592 35,000  Level FlightAware Transoceanic
03:10AM 6.0137 -165.7996 50° Northeast 514 592 35,000  Level FlightAware Transoceanic
03:11AM 6.1070 -165.6889 50° Northeast 514 592 35,000  Level FlightAware Transoceanic
03:12AM 6.2002 -165.5782 50° Northeast 514 592 35,000  Level FlightAware Transoceanic
03:13AM 6.2935 -165.4675 50° Northeast 514 592 35,000  Level FlightAware Transoceanic
03:14AM 6.3867 -165.3568 50° Northeast 514 592 35,000  Level FlightAware Transoceanic
03:15AM 6.4799 -165.2460 50° Northeast 514 592 35,000  Level FlightAware Transoceanic
03:16AM 6.5731 -165.1352 50° Northeast 514 592 35,000  Level FlightAware Transoceanic
03:16AM 6.5333 -165.1833 50° Northeast 516 594 35,000  Level Oakland Oceanic (ODAPS)
03:17AM 6.6662 -165.0243 50° Northeast 514 592 35,000  Level FlightAware Transoceanic
03:18AM 6.7593 -164.9134 50° Northeast 514 592 35,000  Level FlightAware Transoceanic
03:19AM 6.8524 -164.8024 50° Northeast 514 592 35,000  Level FlightAware Transoceanic
03:20AM 6.9455 -164.6914 50° Northeast 514 592 35,000  Level FlightAware Transoceanic
03:21AM 7.0385 -164.5804 50° Northeast 514 592 35,000  Level FlightAware Transoceanic
03:22AM 7.0983 -164.5097 50° Northeast 516 594 35,000  Level FlightAware Transoceanic
03:23AM 7.1924 -164.3973 50° Northeast 516 594 35,000  Level FlightAware Transoceanic
03:24AM 7.2864 -164.2848 50° Northeast 516 594 35,000  Level FlightAware Transoceanic
03:25AM 7.3804 -164.1723 50° Northeast 516 594 35,000  Level FlightAware Transoceanic
03:26AM 7.4744 -164.0597 50° Northeast 516 594 35,000  Level FlightAware Transoceanic
03:27AM 7.5684 -163.9471 50° Northeast 516 594 35,000  Level FlightAware Transoceanic
03:28AM 7.6623 -163.8344 50° Northeast 516 594 35,000  Level FlightAware Transoceanic
03:29AM 7.7562 -163.7217 50° Northeast 516 594 35,000  Level FlightAware Transoceanic
03:29AM 7.8167 -163.6500 50° Northeast 517 595 35,000  Level Oakland Oceanic (ODAPS)
03:30AM 7.8501 -163.6090 50° Northeast 516 594 35,000  Level FlightAware Transoceanic
03:31AM 7.9439 -163.4961 50° Northeast 516 594 35,000  Level FlightAware Transoceanic
03:32AM 8.0377 -163.3833 50° Northeast 516 594 35,000  Level FlightAware Transoceanic
03:33AM 8.1315 -163.2704 50° Northeast 516 594 35,000  Level FlightAware Transoceanic
03:34AM 8.2252 -163.1574 50° Northeast 516 594 35,000  Level FlightAware Transoceanic
03:35AM 8.2929 -163.0765 50° Northeast 517 595 35,000  Level FlightAware Transoceanic
03:36AM 8.3880 -162.9617 50° Northeast 517 595 35,000  Level FlightAware Transoceanic
03:37AM 8.4831 -162.8468 50° Northeast 517 595 35,000  Level FlightAware Transoceanic
03:38AM 8.5782 -162.7318 50° Northeast 517 595 35,000  Level FlightAware Transoceanic
03:39AM 8.6732 -162.6168 50° Northeast 517 595 35,000  Level FlightAware Transoceanic
03:40AM 8.7682 -162.5017 50° Northeast 517 595 35,000  Level FlightAware Transoceanic
03:41AM 8.8632 -162.3866 50° Northeast 517 595 35,000  Level FlightAware Transoceanic
03:42AM 8.9581 -162.2713 50° Northeast 517 595 35,000  Level FlightAware Transoceanic
03:43AM 9.0530 -162.1561 50° Northeast 517 595 35,000  Level FlightAware Transoceanic
03:43AM 9.1167 -162.0667 50° Northeast 532 612 35,000  Level Oakland Oceanic (ODAPS)
03:44AM 9.1479 -162.0408 50° Northeast 517 595 35,000  Level FlightAware Transoceanic
03:45AM 9.2427 -161.9254 50° Northeast 517 595 35,000  Level FlightAware Transoceanic
03:46AM 9.3375 -161.8099 50° Northeast 517 595 35,000  Level FlightAware Transoceanic
03:47AM 9.4323 -161.6944 50° Northeast 517 595 35,000  Level FlightAware Transoceanic
03:48AM 9.5270 -161.5788 50° Northeast 517 595 35,000  Level FlightAware Transoceanic
03:49AM 9.6471 -161.4273 50° Northeast 532 612 35,000  Level FlightAware Transoceanic
03:50AM 9.7353 -161.3206 50° Northeast 532 612 35,000  Level FlightAware Transoceanic
03:51AM 9.8236 -161.2138 50° Northeast 532 612 35,000  Level FlightAware Transoceanic
03:52AM 9.9118 -161.1069 50° Northeast 532 612 35,000  Level FlightAware Transoceanic
03:52AM 10.0000 -161.0000 53° Northeast 533 613 35,000  Level Oakland Oceanic (ODAPS)
03:53AM 10.0000 -161.0000 53° Northeast 532 612 35,000  Level FlightAware Transoceanic
03:54AM 10.0892 -160.8794 53° Northeast 532 612 35,000  Level FlightAware Transoceanic
03:55AM 10.1783 -160.7587 53° Northeast 532 612 35,000  Level FlightAware Transoceanic
03:56AM 10.2674 -160.6379 53° Northeast 532 612 35,000  Level FlightAware Transoceanic
03:57AM 10.3564 -160.5171 53° Northeast 532 612 35,000  Level FlightAware Transoceanic
03:57AM 10.4000 -160.4500 53° Northeast 530 610 35,000  Level Oakland Oceanic (ODAPS)
03:58AM 10.4454 -160.3962 53° Northeast 532 612 35,000  Level FlightAware Transoceanic
03:59AM 10.5343 -160.2752 53° Northeast 533 613 35,000  Level FlightAware Transoceanic
04:00AM 10.6232 -160.1542 53° Northeast 533 613 35,000  Level FlightAware Transoceanic
04:01AM 10.7121 -160.0331 53° Northeast 533 613 35,000  Level FlightAware Transoceanic
04:02AM 10.8009 -159.9119 53° Northeast 533 613 35,000  Level FlightAware Transoceanic
04:03AM 10.9282 -159.7310 53° Northeast 530 610 35,000  Level FlightAware Transoceanic
04:04AM 11.0160 -159.6109 53° Northeast 530 610 35,000  Level FlightAware Transoceanic
04:05AM 11.1039 -159.4907 53° Northeast 530 610 35,000  Level FlightAware Transoceanic
04:06AM 11.1916 -159.3705 53° Northeast 530 610 35,000  Level FlightAware Transoceanic
04:07AM 11.2794 -159.2502 53° Northeast 530 610 35,000  Level FlightAware Transoceanic
04:08AM 11.3670 -159.1298 53° Northeast 530 610 35,000  Level FlightAware Transoceanic
04:09AM 11.4547 -159.0094 53° Northeast 530 610 35,000  Level FlightAware Transoceanic
04:10AM 11.5422 -158.8889 53° Northeast 530 610 35,000  Level FlightAware Transoceanic
04:11AM 11.6298 -158.7683 53° Northeast 530 610 35,000  Level FlightAware Transoceanic
04:11AM 11.6333 -158.7667 53° Northeast 532 612 35,000  Level Oakland Oceanic (ODAPS)
04:12AM 11.7172 -158.6476 54° Northeast 530 610 35,000  Level FlightAware Transoceanic
04:13AM 11.8047 -158.5269 54° Northeast 530 610 35,000  Level FlightAware Transoceanic
04:14AM 11.8920 -158.4060 54° Northeast 530 610 35,000  Level FlightAware Transoceanic
04:15AM 11.9794 -158.2851 54° Northeast 530 610 35,000  Level FlightAware Transoceanic
04:16AM 12.0666 -158.1641 54° Northeast 530 610 35,000  Level FlightAware Transoceanic
04:17AM 12.1569 -158.0417 54° Northeast 532 612 35,000  Level FlightAware Transoceanic
04:18AM 12.2439 -157.9206 54° Northeast 532 612 35,000  Level FlightAware Transoceanic
04:19AM 12.3310 -157.7994 54° Northeast 532 612 35,000  Level FlightAware Transoceanic
04:20AM 12.4179 -157.6782 54° Northeast 532 612 35,000  Level FlightAware Transoceanic
04:21AM 12.5049 -157.5568 54° Northeast 532 612 35,000  Level FlightAware Transoceanic
04:22AM 12.5917 -157.4354 54° Northeast 532 612 35,000  Level FlightAware Transoceanic
04:23AM 12.6785 -157.3139 54° Northeast 532 612 35,000  Level FlightAware Transoceanic
04:24AM 12.7653 -157.1923 54° Northeast 532 612 35,000  Level FlightAware Transoceanic
04:25AM 12.8520 -157.0706 54° Northeast 532 612 35,000  Level FlightAware Transoceanic
04:25AM 12.8667 -157.0667 54° Northeast 535 616 35,000  Level Oakland Oceanic (ODAPS)
04:26AM 12.9386 -156.9489 54° Northeast 532 612 35,000  Level FlightAware Transoceanic
04:27AM 13.0252 -156.8270 54° Northeast 532 612 35,000  Level FlightAware Transoceanic
04:28AM 13.1117 -156.7051 54° Northeast 532 612 35,000  Level FlightAware Transoceanic
04:29AM 13.1982 -156.5831 54° Northeast 532 612 35,000  Level FlightAware Transoceanic
04:30AM 13.2846 -156.4610 54° Northeast 532 612 35,000  Level FlightAware Transoceanic
04:31AM 13.3821 -156.3358 54° Northeast 535 616 35,000  Level FlightAware Transoceanic
04:32AM 13.4678 -156.2137 54° Northeast 535 616 35,000  Level FlightAware Transoceanic
04:33AM 13.5535 -156.0914 54° Northeast 535 616 35,000  Level FlightAware Transoceanic
04:34AM 13.6390 -155.9691 54° Northeast 535 616 35,000  Level FlightAware Transoceanic
04:35AM 13.7246 -155.8468 54° Northeast 535 616 35,000  Level FlightAware Transoceanic
04:36AM 13.8100 -155.7243 54° Northeast 535 616 35,000  Level FlightAware Transoceanic
04:37AM 13.8954 -155.6017 54° Northeast 535 616 35,000  Level FlightAware Transoceanic
04:38AM 13.9808 -155.4791 54° Northeast 535 616 35,000  Level FlightAware Transoceanic
04:39AM 14.0661 -155.3563 54° Northeast 535 616 35,000  Level FlightAware Transoceanic
04:39AM 14.0667 -155.3500 54° Northeast 538 619 35,000  Level Oakland Oceanic (ODAPS)
04:40AM 14.1513 -155.2335 54° Northeast 535 616 35,000  Level FlightAware Transoceanic
04:41AM 14.2365 -155.1106 54° Northeast 535 616 35,000  Level FlightAware Transoceanic
04:42AM 14.3216 -154.9876 54° Northeast 535 616 35,000  Level FlightAware Transoceanic
04:43AM 14.4066 -154.8645 55° Northeast 535 616 35,000  Level FlightAware Transoceanic
04:44AM 14.4916 -154.7412 55° Northeast 535 616 35,000  Level FlightAware Transoceanic
04:45AM 14.5767 -154.6151 54° Northeast 538 619 35,000  Level FlightAware Transoceanic
04:46AM 14.6615 -154.4922 55° Northeast 538 619 35,000  Level FlightAware Transoceanic
04:47AM 14.7462 -154.3693 55° Northeast 538 619 35,000  Level FlightAware Transoceanic
04:48AM 14.8309 -154.2463 55° Northeast 538 619 35,000  Level FlightAware Transoceanic
04:49AM 14.9155 -154.1232 55° Northeast 538 619 35,000  Level FlightAware Transoceanic
04:49AM 15.0000 -154.0000 57° Northeast 542 624 35,000  Level Oakland Oceanic (ODAPS)
04:50AM 15.0000 -154.0000 57° Northeast 538 619 35,000  Level FlightAware Transoceanic
04:51AM 15.0826 -153.8669 57° Northeast 538 619 35,000  Level FlightAware Transoceanic
04:52AM 15.1651 -153.7336 57° Northeast 538 619 35,000  Level FlightAware Transoceanic
04:52AM 15.2500 -153.5833 57° Northeast 542 624 35,000  Level Oakland Oceanic (ODAPS)
04:53AM 15.2475 -153.6002 57° Northeast 538 619 35,000  Level FlightAware Transoceanic
04:54AM 15.3299 -153.4668 57° Northeast 538 619 35,000  Level FlightAware Transoceanic
04:55AM 15.4122 -153.3332 57° Northeast 538 619 35,000  Level FlightAware Transoceanic
04:56AM 15.4944 -153.1995 57° Northeast 542 624 35,000  Level FlightAware Transoceanic
04:57AM 15.5765 -153.0657 58° Northeast 542 624 35,000  Level FlightAware Transoceanic
04:58AM 15.6585 -152.9318 58° Northeast 542 624 35,000  Level FlightAware Transoceanic
04:59AM 15.7424 -152.7839 58° Northeast 542 624 35,000  Level FlightAware Transoceanic
05:00AM 15.8242 -152.6503 58° Northeast 542 624 35,000  Level FlightAware Transoceanic
05:01AM 15.9059 -152.5166 58° Northeast 542 624 35,000  Level FlightAware Transoceanic
05:02AM 15.9876 -152.3827 58° Northeast 542 624 35,000  Level FlightAware Transoceanic
05:03AM 16.0691 -152.2488 58° Northeast 542 624 35,000  Level FlightAware Transoceanic
05:04AM 16.1506 -152.1147 58° Northeast 542 624 35,000  Level FlightAware Transoceanic
05:05AM 16.2320 -151.9806 58° Northeast 542 624 35,000  Level FlightAware Transoceanic
05:06AM 16.3132 -151.8463 58° Northeast 542 624 35,000  Level FlightAware Transoceanic
05:06AM 16.3667 -151.7667 58° Northeast 537 618 35,000  Level Oakland Oceanic (ODAPS)
05:07AM 16.3945 -151.7119 58° Northeast 542 624 35,000  Level FlightAware Transoceanic
05:08AM 16.4756 -151.5774 58° Northeast 542 624 35,000  Level FlightAware Transoceanic
05:09AM 16.5566 -151.4428 58° Northeast 542 624 35,000  Level FlightAware Transoceanic
05:10AM 16.6376 -151.3081 58° Northeast 542 624 35,000  Level FlightAware Transoceanic
05:11AM 16.7184 -151.1733 58° Northeast 542 624 35,000  Level FlightAware Transoceanic
05:12AM 16.7992 -151.0383 58° Northeast 542 624 35,000  Level FlightAware Transoceanic
05:13AM 16.8606 -150.9418 58° Northeast 537 618 35,000  Level FlightAware Transoceanic
05:14AM 16.9426 -150.8039 58° Northeast 537 618 35,000  Level FlightAware Transoceanic
05:15AM 17.0245 -150.6658 58° Northeast 537 618 35,000  Level FlightAware Transoceanic
05:16AM 17.1063 -150.5277 58° Northeast 537 618 35,000  Level FlightAware Transoceanic
05:17AM 17.1880 -150.3894 58° Northeast 537 618 35,000  Level FlightAware Transoceanic
05:18AM 17.2697 -150.2511 58° Northeast 537 618 35,000  Level FlightAware Transoceanic
05:19AM 17.3512 -150.1125 58° Northeast 537 618 35,000  Level FlightAware Transoceanic
05:20AM 17.4326 -149.9739 58° Northeast 537 618 35,000  Level FlightAware Transoceanic
05:20AM 17.4500 -149.9500 59° Northeast 534 615 35,000  Level Oakland Oceanic (ODAPS)
05:21AM 17.5140 -149.8352 58° Northeast 537 618 35,000  Level FlightAware Transoceanic
05:22AM 17.5952 -149.6963 58° Northeast 537 618 35,000  Level FlightAware Transoceanic
05:23AM 17.6764 -149.5573 59° Northeast 537 618 35,000  Level FlightAware Transoceanic
05:24AM 17.7574 -149.4181 59° Northeast 537 618 35,000  Level FlightAware Transoceanic
05:25AM 17.8384 -149.2789 59° Northeast 537 618 35,000  Level FlightAware Transoceanic
05:26AM 17.9193 -149.1395 59° Northeast 537 618 35,000  Level FlightAware Transoceanic
05:27AM 17.9315 -149.1191 59° Northeast 534 615 35,000  Level FlightAware Transoceanic
05:27AM 18.0000 -149.0000 62° Northeast 540 621 35,000  Level Oakland Oceanic (ODAPS)
05:28AM 18.0000 -149.0000 62° Northeast 534 615 35,000  Level FlightAware Transoceanic
05:29AM 18.0721 -148.8579 62° Northeast 534 615 35,000  Level FlightAware Transoceanic
05:30AM 18.1441 -148.7157 62° Northeast 534 615 35,000  Level FlightAware Transoceanic
05:31AM 18.2160 -148.5734 62° Northeast 534 615 35,000  Level FlightAware Transoceanic
05:32AM 18.2878 -148.4310 62° Northeast 534 615 35,000  Level FlightAware Transoceanic
05:33AM 18.3596 -148.2884 62° Northeast 534 615 35,000  Level FlightAware Transoceanic
05:34AM 18.4311 -148.1457 62° Northeast 540 621 35,000 1,320 Level FlightAware Transoceanic
05:34AM 18.4833 -148.0500 62° Northeast 549 632 37,000  Climbing Oakland Oceanic (ODAPS)
05:35AM 18.5026 -148.0029 62° Northeast 540 621 35,000 -1,380 Descending FlightAware Transoceanic
05:36AM 18.5740 -147.8600 62° Northeast 540 621 35,000  Level FlightAware Transoceanic
05:37AM 18.6453 -147.7170 62° Northeast 540 621 35,000  Level FlightAware Transoceanic
05:38AM 18.7164 -147.5738 62° Northeast 540 621 35,000  Level FlightAware Transoceanic
05:39AM 18.7875 -147.4306 62° Northeast 540 621 35,000 960 Level FlightAware Transoceanic
05:40AM 18.8714 -147.2631 63° Northeast 549 632 37,000 960 Climbing FlightAware Transoceanic
05:41AM 18.9357 -147.1316 63° Northeast 549 632 37,000  Level FlightAware Transoceanic
05:41AM 19.0000 -147.0000 57° Northeast 532 612 37,000  Level Oakland Oceanic (ODAPS)
05:42AM 19.0000 -147.0000 57° Northeast 549 632 37,000  Level FlightAware Transoceanic
05:43AM 19.0829 -146.8674 57° Northeast 549 632 37,000  Level FlightAware Transoceanic
05:44AM 19.1657 -146.7346 57° Northeast 549 632 37,000  Level FlightAware Transoceanic
05:45AM 19.2484 -146.6017 57° Northeast 549 632 37,000  Level FlightAware Transoceanic
05:46AM 19.3311 -146.4687 57° Northeast 549 632 37,000  Level FlightAware Transoceanic
05:47AM 19.4136 -146.3356 57° Northeast 549 632 37,000  Level FlightAware Transoceanic
05:48AM 19.4960 -146.2023 57° Northeast 532 612 37,000  Level FlightAware Transoceanic
05:48AM 19.5167 -146.1667 57° Northeast 527 606 37,000  Level Oakland Oceanic (ODAPS)
05:49AM 19.5783 -146.0688 57° Northeast 532 612 37,000  Level FlightAware Transoceanic
05:50AM 19.6606 -145.9353 57° Northeast 532 612 37,000  Level FlightAware Transoceanic
05:51AM 19.7427 -145.8016 57° Northeast 532 612 37,000  Level FlightAware Transoceanic
05:52AM 19.8247 -145.6678 57° Northeast 532 612 37,000  Level FlightAware Transoceanic
05:53AM 19.9067 -145.5338 57° Northeast 532 612 37,000  Level FlightAware Transoceanic
05:54AM 19.9898 -145.3957 57° Northeast 527 606 37,000  Level FlightAware Transoceanic
05:55AM 20.0683 -145.2668 57° Northeast 527 606 37,000  Level FlightAware Transoceanic
05:56AM 20.1468 -145.1377 57° Northeast 527 606 37,000  Level FlightAware Transoceanic
05:57AM 20.2251 -145.0085 57° Northeast 527 606 37,000  Level FlightAware Transoceanic
05:58AM 20.3034 -144.8792 57° Northeast 527 606 37,000  Level FlightAware Transoceanic
05:59AM 20.3815 -144.7497 57° Northeast 527 606 37,000  Level FlightAware Transoceanic
06:00AM 20.4596 -144.6201 57° Northeast 527 606 37,000  Level FlightAware Transoceanic
06:01AM 20.5376 -144.4904 57° Northeast 527 606 37,000  Level FlightAware Transoceanic
06:02AM 20.6154 -144.3606 57° Northeast 527 606 37,000  Level FlightAware Transoceanic
06:02AM 20.6333 -144.3500 58° Northeast 527 606 37,000  Level Oakland Oceanic (ODAPS)
06:03AM 20.6932 -144.2306 57° Northeast 527 606 37,000  Level FlightAware Transoceanic
06:04AM 20.7709 -144.1005 57° Northeast 527 606 37,000  Level FlightAware Transoceanic
06:05AM 20.8485 -143.9702 58° Northeast 527 606 37,000  Level FlightAware Transoceanic
06:06AM 20.9259 -143.8398 58° Northeast 527 606 37,000  Level FlightAware Transoceanic
06:07AM 21.0033 -143.7093 58° Northeast 527 606 37,000  Level FlightAware Transoceanic
06:08AM 21.0925 -143.5715 58° Northeast 527 606 37,000  Level FlightAware Transoceanic
06:09AM 21.1687 -143.4413 58° Northeast 527 606 37,000  Level FlightAware Transoceanic
06:10AM 21.2448 -143.3109 58° Northeast 527 606 37,000  Level FlightAware Transoceanic
06:11AM 21.3207 -143.1805 58° Northeast 527 606 37,000  Level FlightAware Transoceanic
06:12AM 21.3966 -143.0499 58° Northeast 527 606 37,000  Level FlightAware Transoceanic
06:13AM 21.4724 -142.9191 58° Northeast 527 606 37,000  Level FlightAware Transoceanic
06:14AM 21.5481 -142.7882 58° Northeast 527 606 37,000  Level FlightAware Transoceanic
06:15AM 21.6237 -142.6572 58° Northeast 527 606 37,000  Level FlightAware Transoceanic
06:16AM 21.6991 -142.5260 58° Northeast 527 606 37,000  Level FlightAware Transoceanic
06:16AM 21.7167 -142.5000 59° Northeast 533 613 37,000  Level Oakland Oceanic (ODAPS)
06:17AM 21.7745 -142.3947 58° Northeast 527 606 37,000  Level FlightAware Transoceanic
06:18AM 21.8498 -142.2633 58° Northeast 527 606 37,000  Level FlightAware Transoceanic
06:19AM 21.9249 -142.1317 58° Northeast 527 606 37,000  Level FlightAware Transoceanic
06:19AM 22.0000 -142.0000 57° Northeast 527 606 37,000  Level Oakland Oceanic (ODAPS)
06:20AM 22.0000 -142.0000 57° Northeast 527 606 37,000  Level FlightAware Transoceanic
06:21AM 22.0830 -141.8642 57° Northeast 527 606 37,000  Level FlightAware Transoceanic
06:22AM 22.1659 -141.7281 57° Northeast 533 613 37,000  Level FlightAware Transoceanic
06:23AM 22.2486 -141.5920 57° Northeast 533 613 37,000  Level FlightAware Transoceanic
06:24AM 22.3313 -141.4556 57° Northeast 533 613 37,000  Level FlightAware Transoceanic
06:25AM 22.4138 -141.3192 57° Northeast 533 613 37,000  Level FlightAware Transoceanic
06:26AM 22.4866 -141.1986 57° Northeast 527 606 37,000  Level FlightAware Transoceanic
06:27AM 22.5673 -141.0645 57° Northeast 527 606 37,000  Level FlightAware Transoceanic
06:28AM 22.6479 -140.9302 57° Northeast 527 606 37,000  Level FlightAware Transoceanic
06:29AM 22.7284 -140.7958 57° Northeast 527 606 37,000  Level FlightAware Transoceanic
06:29AM 22.8167 -140.6500 57° Northeast 529 609 37,000  Level Oakland Oceanic (ODAPS)
06:30AM 22.8088 -140.6612 57° Northeast 527 606 37,000  Level FlightAware Transoceanic
06:31AM 22.8890 -140.5265 57° Northeast 527 606 37,000  Level FlightAware Transoceanic
06:32AM 22.9692 -140.3916 57° Northeast 527 606 37,000  Level FlightAware Transoceanic
06:33AM 23.0492 -140.2565 57° Northeast 527 606 37,000  Level FlightAware Transoceanic
06:34AM 23.1291 -140.1213 57° Northeast 527 606 37,000  Level FlightAware Transoceanic
06:35AM 23.2089 -139.9859 57° Northeast 527 606 37,000  Level FlightAware Transoceanic
06:36AM 23.2953 -139.8407 57° Northeast 529 609 37,000  Level FlightAware Transoceanic
06:37AM 23.3747 -139.7053 57° Northeast 529 609 37,000  Level FlightAware Transoceanic
06:38AM 23.4540 -139.5697 58° Northeast 529 609 37,000  Level FlightAware Transoceanic
06:39AM 23.5331 -139.4339 58° Northeast 529 609 37,000  Level FlightAware Transoceanic
06:40AM 23.6121 -139.2979 58° Northeast 529 609 37,000  Level FlightAware Transoceanic
06:41AM 23.6910 -139.1618 58° Northeast 529 609 37,000  Level FlightAware Transoceanic
06:42AM 23.7698 -139.0256 58° Northeast 529 609 37,000  Level FlightAware Transoceanic
06:43AM 23.8485 -138.8892 58° Northeast 529 609 37,000  Level FlightAware Transoceanic
06:43AM 23.9000 -138.8000 58° Northeast 525 604 37,000  Level Oakland Oceanic (ODAPS)
06:44AM 23.9270 -138.7526 58° Northeast 529 609 37,000  Level FlightAware Transoceanic
06:45AM 24.0054 -138.6158 58° Northeast 529 609 37,000  Level FlightAware Transoceanic
06:46AM 24.0837 -138.4789 58° Northeast 529 609 37,000  Level FlightAware Transoceanic
06:47AM 24.1619 -138.3418 58° Northeast 529 609 37,000  Level FlightAware Transoceanic
06:48AM 24.2400 -138.2045 58° Northeast 529 609 37,000  Level FlightAware Transoceanic
06:49AM 24.3179 -138.0671 58° Northeast 529 609 37,000  Level FlightAware Transoceanic
06:50AM 24.3749 -137.9667 58° Northeast 525 604 37,000  Level FlightAware Transoceanic
06:51AM 24.4536 -137.8272 58° Northeast 525 604 37,000  Level FlightAware Transoceanic
06:52AM 24.5322 -137.6875 58° Northeast 525 604 37,000  Level FlightAware Transoceanic
06:53AM 24.6106 -137.5477 58° Northeast 525 604 37,000  Level FlightAware Transoceanic
06:54AM 24.6890 -137.4077 58° Northeast 525 604 37,000  Level FlightAware Transoceanic
06:55AM 24.7672 -137.2675 58° Northeast 525 604 37,000  Level FlightAware Transoceanic
06:56AM 24.8452 -137.1271 59° Northeast 525 604 37,000  Level FlightAware Transoceanic
06:57AM 24.9231 -136.9866 59° Northeast 525 604 37,000  Level FlightAware Transoceanic
06:57AM 24.9667 -136.9000 59° Northeast 528 608 37,000  Level Oakland Oceanic (ODAPS)
06:58AM 25.0009 -136.8458 59° Northeast 525 604 37,000  Level FlightAware Transoceanic
06:59AM 25.0786 -136.7049 59° Northeast 525 604 37,000  Level FlightAware Transoceanic
07:00AM 25.1561 -136.5638 59° Northeast 525 604 37,000  Level FlightAware Transoceanic
07:01AM 25.2335 -136.4226 59° Northeast 525 604 37,000  Level FlightAware Transoceanic
07:02AM 25.3108 -136.2811 59° Northeast 525 604 37,000  Level FlightAware Transoceanic
07:03AM 25.3670 -136.1731 59° Northeast 528 608 37,000  Level FlightAware Transoceanic
07:04AM 25.4466 -136.0271 59° Northeast 528 608 37,000  Level FlightAware Transoceanic
07:05AM 25.5261 -135.8810 59° Northeast 528 608 37,000  Level FlightAware Transoceanic
07:06AM 25.6055 -135.7346 59° Northeast 528 608 37,000  Level FlightAware Transoceanic
07:07AM 25.6847 -135.5881 59° Northeast 528 608 37,000  Level FlightAware Transoceanic
07:08AM 25.7637 -135.4414 59° Northeast 528 608 37,000  Level FlightAware Transoceanic
07:09AM 25.8426 -135.2944 59° Northeast 528 608 37,000  Level FlightAware Transoceanic
07:10AM 25.9214 -135.1473 59° Northeast 528 608 37,000  Level FlightAware Transoceanic
07:11AM 26.0000 -135.0000 55° Northeast 528 608 37,000  Level FlightAware Transoceanic
07:11AM 26.0000 -135.0000 55° Northeast 531 611 37,000  Level Oakland Oceanic (ODAPS)
07:11AM 26.0000 -135.0000 55° Northeast 530 610 37,000  Level Oakland Oceanic (ODAPS)
07:12AM 26.0857 -134.8647 55° Northeast 528 608 37,000  Level FlightAware Transoceanic
07:13AM 26.1712 -134.7292 55° Northeast 528 608 37,000  Level FlightAware Transoceanic
07:14AM 26.2567 -134.5936 55° Northeast 528 608 37,000  Level FlightAware Transoceanic
07:15AM 26.3420 -134.4577 55° Northeast 528 608 37,000  Level FlightAware Transoceanic
07:16AM 26.4271 -134.3216 55° Northeast 528 608 37,000  Level FlightAware Transoceanic
07:17AM 26.4984 -134.2075 55° Northeast 530 610 37,000  Level FlightAware Transoceanic
07:18AM 26.5810 -134.0747 55° Northeast 530 610 37,000  Level FlightAware Transoceanic
07:19AM 26.6635 -133.9418 55° Northeast 530 610 37,000  Level FlightAware Transoceanic
07:20AM 26.7459 -133.8086 55° Northeast 530 610 37,000  Level FlightAware Transoceanic
07:21AM 26.8282 -133.6753 55° Northeast 530 610 37,000  Level FlightAware Transoceanic
07:22AM 26.9103 -133.5418 55° Northeast 530 610 37,000  Level FlightAware Transoceanic
07:23AM 26.9923 -133.4081 55° Northeast 530 610 37,000  Level FlightAware Transoceanic
07:24AM 27.0742 -133.2741 56° Northeast 530 610 37,000  Level FlightAware Transoceanic
07:25AM 27.1560 -133.1400 56° Northeast 530 610 37,000  Level FlightAware Transoceanic
07:25AM 27.1667 -133.1167 56° Northeast 532 612 37,000  Level Oakland Oceanic (ODAPS)
07:26AM 27.2376 -133.0057 56° Northeast 530 610 37,000  Level FlightAware Transoceanic
07:27AM 27.3192 -132.8712 56° Northeast 530 610 37,000  Level FlightAware Transoceanic
07:28AM 27.4005 -132.7365 56° Northeast 530 610 37,000  Level FlightAware Transoceanic
07:29AM 27.4818 -132.6016 56° Northeast 530 610 37,000  Level FlightAware Transoceanic
07:30AM 27.5629 -132.4665 56° Northeast 530 610 37,000  Level FlightAware Transoceanic
07:31AM 27.6517 -132.3138 56° Northeast 532 612 37,000  Level FlightAware Transoceanic
07:32AM 27.7320 -132.1793 56° Northeast 532 612 37,000  Level FlightAware Transoceanic
07:33AM 27.8123 -132.0446 56° Northeast 532 612 37,000  Level FlightAware Transoceanic
07:34AM 27.8924 -131.9097 56° Northeast 532 612 37,000  Level FlightAware Transoceanic
07:35AM 27.9724 -131.7746 56° Northeast 532 612 37,000  Level FlightAware Transoceanic
07:36AM 28.0523 -131.6394 56° Northeast 532 612 37,000  Level FlightAware Transoceanic
07:37AM 28.1320 -131.5039 56° Northeast 532 612 37,000  Level FlightAware Transoceanic
07:38AM 28.2116 -131.3682 56° Northeast 532 612 37,000  Level FlightAware Transoceanic
07:39AM 28.2910 -131.2323 56° Northeast 532 612 37,000  Level FlightAware Transoceanic
07:39AM 28.3167 -131.2000 57° Northeast 535 616 37,000  Level Oakland Oceanic (ODAPS)
07:40AM 28.3703 -131.0962 57° Northeast 532 612 37,000  Level FlightAware Transoceanic
07:41AM 28.4495 -130.9599 57° Northeast 532 612 37,000  Level FlightAware Transoceanic
07:42AM 28.5286 -130.8234 57° Northeast 532 612 37,000  Level FlightAware Transoceanic
07:43AM 28.6075 -130.6866 57° Northeast 532 612 37,000  Level FlightAware Transoceanic
07:44AM 28.6863 -130.5497 57° Northeast 532 612 37,000  Level FlightAware Transoceanic
07:45AM 28.7734 -130.4017 57° Northeast 535 616 37,000  Level FlightAware Transoceanic
07:46AM 28.8491 -130.2680 57° Northeast 535 616 37,000  Level FlightAware Transoceanic
07:47AM 28.9246 -130.1341 57° Northeast 535 616 37,000  Level FlightAware Transoceanic
07:47AM 29.0000 -130.0000 56° Northeast 545 627 37,000  Level Oakland Oceanic (ODAPS)
07:48AM 29.0000 -130.0000 56° Northeast 535 616 37,000  Level FlightAware Transoceanic
07:49AM 29.0866 -129.8536 56° Northeast 535 616 37,000  Level FlightAware Transoceanic
07:50AM 29.1730 -129.7069 56° Northeast 535 616 37,000  Level FlightAware Transoceanic
07:51AM 29.2592 -129.5600 56° Northeast 535 616 37,000  Level FlightAware Transoceanic
07:52AM 29.3453 -129.4129 56° Northeast 535 616 37,000  Level FlightAware Transoceanic
07:53AM 29.4312 -129.2654 56° Northeast 545 627 37,000  Level FlightAware Transoceanic
07:53AM 29.4500 -129.2333 56° Northeast 549 632 37,000  Level Oakland Oceanic (ODAPS)
07:54AM 29.5170 -129.1178 56° Northeast 545 627 37,000  Level FlightAware Transoceanic
07:55AM 29.6026 -128.9699 56° Northeast 545 627 37,000  Level FlightAware Transoceanic
07:56AM 29.6880 -128.8217 56° Northeast 545 627 37,000  Level FlightAware Transoceanic
07:57AM 29.7732 -128.6733 57° Northeast 545 627 37,000  Level FlightAware Transoceanic
07:58AM 29.8583 -128.5246 57° Northeast 545 627 37,000  Level FlightAware Transoceanic
07:59AM 29.9586 -128.3490 57° Northeast 549 632 37,000  Level FlightAware Transoceanic
08:00AM 30.0428 -128.2007 57° Northeast 549 632 37,000  Level FlightAware Transoceanic
08:01AM 30.1268 -128.0522 57° Northeast 549 632 37,000  Level FlightAware Transoceanic
08:02AM 30.2106 -127.9035 57° Northeast 549 632 37,000  Level FlightAware Transoceanic
08:03AM 30.2943 -127.7545 57° Northeast 549 632 37,000  Level FlightAware Transoceanic
08:04AM 30.3778 -127.6052 57° Northeast 549 632 37,000  Level FlightAware Transoceanic
08:05AM 30.4612 -127.4557 57° Northeast 549 632 37,000  Level FlightAware Transoceanic
08:06AM 30.5443 -127.3059 57° Northeast 549 632 37,000  Level FlightAware Transoceanic
08:07AM 30.6273 -127.1558 57° Northeast 549 632 37,000  Level FlightAware Transoceanic
08:07AM 30.5833 -127.2333 57° Northeast 554 638 37,000  Level Oakland Oceanic (ODAPS)
08:08AM 30.7102 -127.0055 57° Northeast 549 632 37,000  Level FlightAware Transoceanic
08:09AM 30.7928 -126.8550 57° Northeast 549 632 37,000  Level FlightAware Transoceanic
08:10AM 30.8753 -126.7042 58° Northeast 549 632 37,000  Level FlightAware Transoceanic
08:11AM 30.9576 -126.5531 58° Northeast 549 632 37,000  Level FlightAware Transoceanic
08:12AM 31.0398 -126.4017 58° Northeast 549 632 37,000  Level FlightAware Transoceanic
08:13AM 31.0913 -126.3050 58° Northeast 554 638 37,000  Level FlightAware Transoceanic
08:14AM 31.1753 -126.1493 58° Northeast 554 638 37,000  Level FlightAware Transoceanic
08:15AM 31.2591 -125.9933 58° Northeast 554 638 37,000  Level FlightAware Transoceanic
08:16AM 31.3428 -125.8371 58° Northeast 554 638 37,000  Level FlightAware Transoceanic
08:17AM 31.4262 -125.6806 58° Northeast 554 638 37,000  Level FlightAware Transoceanic
08:18AM 31.5095 -125.5238 58° Northeast 554 638 37,000  Level FlightAware Transoceanic
08:19AM 31.5925 -125.3667 58° Northeast 554 638 37,000  Level FlightAware Transoceanic
08:20AM 31.6754 -125.2094 58° Northeast 554 638 37,000  Level FlightAware Transoceanic
08:20AM 31.7000 -125.1333 58° Northeast 561 646 37,000  Level Oakland Oceanic (ODAPS)
08:21AM 31.7581 -125.0517 58° Northeast 554 638 37,000  Level FlightAware Transoceanic
08:22AM 31.8405 -124.8938 58° Northeast 554 638 37,000  Level FlightAware Transoceanic
08:23AM 31.9228 -124.7356 59° Northeast 554 638 37,000  Level FlightAware Transoceanic
08:24AM 32.0049 -124.5771 59° Northeast 554 638 37,000  Level FlightAware Transoceanic
08:25AM 32.0868 -124.4184 59° Northeast 554 638 37,000  Level FlightAware Transoceanic
08:25AM 32.0681 -124.4425 77° East 562 647 37,000  Level Los Angeles Center
08:26AM 32.1685 -124.2593 59° Northeast 554 638 37,000  Level FlightAware Transoceanic
08:26AM 32.1333 -124.3000 55° Northeast 563 648 37,000  Level Oakland Oceanic (ODAPS)
08:26AM 32.1447 -124.2825 55° Northeast 562 647 37,000  Level Los Angeles Center
08:27AM 32.2500 -124.1000 77° East 561 646 37,000  Level FlightAware Transoceanic
08:27AM 32.2419 -124.0950 58° Northeast 560 644 37,000  Level Los Angeles Center
08:28AM 32.2868 -123.9170 77° East 561 646 37,000 -120 Level FlightAware Transoceanic
08:28AM 32.3092 -123.9306 64° Northeast 556 640 36,900  Descending Los Angeles Center
08:29AM 32.3233 -123.7339 77° East 561 646 37,000 -540 Climbing FlightAware Transoceanic
08:29AM 32.3644 -123.7606 69° East 552 635 36,400  Descending Los Angeles Center
08:30AM 32.3595 -123.5507 77° East 561 646 37,000 -540 Climbing FlightAware Transoceanic
08:30AM 32.4192 -123.5914 69° East 551 634 35,900 -1,020 Descending Los Angeles Center
08:31AM 32.4722 -123.4233 69° East 548 631 35,400 -540 Descending Los Angeles Center
08:32AM 32.5233 -123.2581 70° East 542 624 34,900 -540 Descending Los Angeles Center
08:33AM 32.5744 -123.0975 69° East 534 615 34,400 -540 Descending Los Angeles Center
08:34AM 32.6233 -122.9431 69° East 520 598 33,900 -540 Descending Los Angeles Center
08:35AM 32.6722 -122.7933 69° East 505 581 33,400 -780 Descending Los Angeles Center
08:36AM 32.7214 -122.6456 68° East 494 568 32,400 -1,080 Descending Los Angeles Center
08:37AM 32.7706 -122.4964 69° East 489 563 31,300 -960 Descending Los Angeles Center
08:38AM 32.8197 -122.3464 69° East 489 563 30,500 -660 Descending Los Angeles Center
08:39AM 32.8664 -122.1972 70° East 486 559 30,000 -300 Descending Los Angeles Center
08:40AM 32.9119 -122.0506 70° East 481 554 30,000  Level Los Angeles Center
08:41AM 32.9694 -121.8744 69° East 479 551 30,000  Level Los Angeles Center
08:47AM 33.2310 -121.0320 69° East 472 543 30,000  Level FlightAware
08:48AM 33.2660 -120.9200 69° East 470 541 30,000  Level FlightAware
08:48AM 33.2930 -120.8360 69° East 470 541 30,000  Level FlightAware
08:49AM 33.3280 -120.7180 70° East 467 537 30,000  Level FlightAware
08:50AM 33.3690 -120.5790 71° East 468 539 30,000 -120 Level FlightAware
08:51AM 33.3960 -120.4920 70° East 463 533 29,900 -120 Descending FlightAware
08:51AM 33.4210 -120.4100 70° East 463 533 29,900 -2,640 Level FlightAware
08:52AM 33.4530 -120.3020 70° East 438 504 26,400 -2,580 Descending FlightAware
08:53AM 33.4810 -120.2080 70° East 438 504 26,300 -2,040 Descending FlightAware
08:53AM 33.5070 -120.1200 70° East 420 483 23,700 -2,100 Descending FlightAware
08:54AM 33.5470 -119.9870 70° East 416 479 22,800 -540 Descending FlightAware
08:55AM 33.5690 -119.9130 70° East 416 479 22,800  Level FlightAware
08:56AM 33.5920 -119.8400 69° East 416 479 22,800  Level FlightAware
08:56AM 33.6140 -119.7660 70° East 416 479 22,800  Level FlightAware
08:57AM 33.6370 -119.6920 70° East 416 479 22,800  Level FlightAware
08:58AM 33.6590 -119.6180 70° East 416 479 22,800 -3,840 Level FlightAware
09:00AM 33.7560 -119.2720 71° East 361 415 10,800 -4,080 Descending FlightAware
09:01AM 33.7720 -119.2160 71° East 344 396 10,400 -420 Descending FlightAware
09:02AM 33.7960 -119.1330 71° East 328 377 10,200 -540 Descending FlightAware
09:02AM 33.8070 -119.0940 71° East 283 326 9,700 -540 Descending FlightAware
09:03AM 33.8220 -119.0450 70° East 283 326 9,700 -1,860 Level FlightAware
09:03AM 33.8380 -118.9820 73° East 267 307 7,700 -2,760 Descending FlightAware
09:04AM 33.8470 -118.9470 73° East 262 302 7,200 -1,200 Descending FlightAware
09:04AM 33.8580 -118.9070 72° East 259 298 6,600 -1,200 Descending FlightAware
09:05AM 33.8690 -118.8650 72° East 255 293 6,000 -1,020 Descending FlightAware
09:05AM 33.8790 -118.8310 70° East 239 275 5,700 -780 Descending FlightAware
09:05AM 33.8830 -118.8130 75° East 233 268 5,500 -960 Descending FlightAware
09:06AM 33.8930 -118.7770 71° East 226 260 5,000 -1,020 Descending FlightAware
09:06AM 33.9020 -118.7410 73° East 217 250 4,500 -1,200 Descending FlightAware
09:07AM 33.9070 -118.7240 70° East 216 249 4,100 -1,200 Descending FlightAware
09:07AM 33.9150 -118.6960 71° East 204 235 3,700 -660 Descending FlightAware
09:07AM 33.9230 -118.6660 72° East 180 207 3,500 -540 Descending FlightAware
09:08AM 33.9260 -118.6520 76° East 172 198 3,300 -600 Descending FlightAware
09:08AM 33.9290 -118.6280 81° East 169 194 3,100 -480 Descending FlightAware
09:09AM 33.9320 -118.6010 82° East 168 193 2,900 -720 Descending FlightAware
09:09AM 33.9350 -118.5730 83° East 163 188 2,400 -900 Descending FlightAware
09:10AM 33.9370 -118.5490 84° East 161 185 2,100 -720 Descending FlightAware
09:10AM 33.9390 -118.5290 83° East 154 177 1,800 -840 Descending FlightAware
09:10AM 33.9410 -118.5120 82° East 149 171 1,500 -420 Descending FlightAware
09:11AM 33.9420 -118.5050 80° East 149 171 1,400 -480 Descending FlightAware
09:11AM 33.9440 -118.4840 83° East 148 170 1,000 -780 Descending FlightAware
09:12AM 33.9460 -118.4610 84° East 151 174 700 -600 Descending FlightAware
09:12AM 33.9470 -118.4490 84° East 149 171 500 -600 Descending FlightAware
09:13AM 33.9480 -118.4400 82° East 148 170 300 -300 Descending FlightAware
09:13AM 33.9500 -118.4200 83° East 148 170 300  Level FlightAware
09:20AM 33.9425 -118.4081 76° East  Level Estimated
09:21AM 33.9425 -118.4081 76° East  Level Estimated